Time;durP1;ratioP1;P1;durP2;ratioP2;P2;SDS_P1;SDS_P2;PMS_P1;PMS_P2;Temp;Humidity;BMP_temperature;BMP_pressure;BME280_temperature;BME280_humidity;BME280_pressure;Samples;Min_cycle;Max_cycle;Signal;HPM_P1;HPM_P2
2022/06/13 00:01:57;;;;;;;7.93;5.32;;;;;;;17.65;74.83;95398.16;5005497;28;20079;-84
2022/06/13 00:04:23;;;;;;;9.15;5.22;;;;;;;17.55;74.73;95387.81;5007017;28;20030;-85
2022/06/13 00:06:48;;;;;;;6.88;5.10;;;;;;;17.48;74.62;95407.91;4989318;28;20030;-84
2022/06/13 00:09:14;;;;;;;7.35;5.25;;;;;;;17.50;74.18;95403.13;5006324;28;20056;-84
2022/06/13 00:11:39;;;;;;;6.60;4.90;;;;;;;17.53;74.39;95408.09;4988941;28;20469;-84
2022/06/13 00:14:05;;;;;;;8.43;4.55;;;;;;;17.57;74.09;95401.19;4989603;28;20029;-84
2022/06/13 00:16:31;;;;;;;8.00;5.18;;;;;;;17.55;74.13;95400.56;5005456;28;20116;-84
2022/06/13 00:18:56;;;;;;;5.28;4.65;;;;;;;17.54;73.90;95402.44;5005364;28;20412;-84
2022/06/13 00:21:28;;;;;;;6.20;4.75;;;;;;;17.47;73.98;95403.56;4989081;28;20030;-85
2022/06/13 00:23:54;;;;;;;7.50;4.68;;;;;;;17.47;74.49;95414.41;4989499;28;20057;-84
2022/06/13 00:26:23;;;;;;;8.07;4.68;;;;;;;17.47;73.79;95409.81;5006715;28;20191;-85
2022/06/13 00:28:49;;;;;;;5.90;4.80;;;;;;;17.48;73.90;95416.06;5005269;28;20025;-85
2022/06/13 00:31:15;;;;;;;5.85;4.40;;;;;;;17.45;73.43;95420.06;5005768;28;20109;-85
2022/06/13 00:33:40;;;;;;;8.40;5.43;;;;;;;17.43;73.89;95419.44;4989460;28;20022;-84
2022/06/13 00:36:06;;;;;;;6.10;4.10;;;;;;;17.44;73.58;95425.69;4973225;28;20117;-84
2022/06/13 00:38:32;;;;;;;6.85;4.75;;;;;;;17.42;73.64;95423.19;5022057;28;20382;-84
2022/06/13 00:40:57;;;;;;;6.03;4.93;;;;;;;17.36;73.73;95430.31;5021486;28;20570;-84
2022/06/13 00:43:23;;;;;;;6.95;4.95;;;;;;;17.33;73.91;95419.91;4989082;28;20061;-85
2022/06/13 00:45:48;;;;;;;9.23;5.18;;;;;;;17.34;74.28;95420.75;5005720;28;20088;-83
2022/06/13 00:48:14;;;;;;;6.78;4.95;;;;;;;17.29;74.24;95422.25;5007423;28;20030;-83
2022/06/13 00:50:53;;;;;;;8.30;5.07;;;;;;;17.26;74.38;95413.72;5005924;28;20026;-84
2022/06/13 00:53:21;;;;;;;6.75;5.22;;;;;;;17.24;74.14;95405.81;5029751;28;20084;-84
2022/06/13 00:55:49;;;;;;;8.27;5.30;;;;;;;17.21;74.32;95406.28;5029097;28;20049;-84
2022/06/13 00:58:15;;;;;;;7.78;5.22;;;;;;;17.23;74.75;95408.75;5010003;28;20485;-85
2022/06/13 01:00:41;;;;;;;8.65;5.57;;;;;;;17.28;75.10;95414.34;4992967;28;20057;-84
2022/06/13 01:03:07;;;;;;;9.63;5.85;;;;;;;17.27;75.35;95410.81;5026097;28;20026;-86
2022/06/13 01:05:38;;;;;;;7.60;6.15;;;;;;;17.20;75.13;95417.31;4993720;28;20025;-84
2022/06/13 01:08:05;;;;;;;7.07;5.63;;;;;;;17.27;75.14;95416.22;4993615;28;20045;-85
2022/06/13 01:13:14;;;;;;;8.05;5.80;;;;;;;17.24;74.41;95404.97;5010199;28;20051;-85
2022/06/13 01:16:05;;;;;;;7.20;6.07;;;;;;;17.26;74.50;95400.19;5008775;28;20038;-85
2022/06/13 01:18:56;;;;;;;9.98;6.00;;;;;;;17.18;74.62;95409.41;5009852;28;20042;-84
2022/06/13 01:21:47;;;;;;;7.60;5.45;;;;;;;17.11;74.87;95406.75;5009325;28;20113;-84
2022/06/13 01:24:25;;;;;;;13.80;6.30;;;;;;;17.11;74.60;95405.91;5025274;28;20428;-83
2022/06/13 01:27:05;;;;;;;6.97;5.70;;;;;;;17.08;74.76;95406.31;5010558;28;20527;-85
2022/06/13 01:29:33;;;;;;;8.18;5.50;;;;;;;17.15;74.54;95402.53;5008787;28;20037;-83
2022/06/13 01:32:11;;;;;;;7.57;5.97;;;;;;;17.14;74.13;95408.19;5010678;28;20058;-86
2022/06/13 01:34:55;;;;;;;7.82;5.72;;;;;;;17.11;74.22;95406.75;5010795;28;20080;-84
2022/06/13 01:37:21;;;;;;;6.85;5.68;;;;;;;17.16;74.09;95411.50;5011126;28;20022;-87
2022/06/13 01:39:49;;;;;;;7.90;5.30;;;;;;;17.13;74.25;95414.66;5011458;28;20022;-85
2022/06/13 01:42:17;;;;;;;6.38;5.10;;;;;;;17.15;73.63;95410.66;5008973;28;20026;-85
2022/06/13 01:44:53;;;;;;;6.13;5.10;;;;;;;17.08;73.88;95401.78;5010120;28;20061;-84
2022/06/13 01:47:59;;;;;;;7.93;5.68;;;;;;;17.05;74.30;95403.03;5014070;28;20067;-86
2022/06/13 01:50:51;;;;;;;6.22;5.30;;;;;;;17.02;73.83;95402.63;5006614;28;20049;-85
2022/06/13 01:53:22;;;;;;;7.10;5.65;;;;;;;16.98;74.44;95410.34;5016552;28;20559;-84
2022/06/13 01:55:52;;;;;;;7.28;5.55;;;;;;;16.97;74.94;95418.69;5008696;28;20088;-86
2022/06/13 01:58:44;;;;;;;8.07;5.45;;;;;;;17.02;74.12;95416.16;4993729;28;20096;-84
2022/06/13 02:01:41;;;;;;;9.60;5.03;;;;;;;16.99;73.44;95412.00;5039683;28;20060;-84
2022/06/13 02:04:20;;;;;;;10.65;5.13;;;;;;;16.92;73.96;95414.75;5016507;28;20049;-85
2022/06/13 02:07:14;;;;;;;7.97;5.18;;;;;;;16.92;74.65;95413.94;4993358;28;20037;-85
2022/06/13 02:09:43;;;;;;;8.80;5.78;;;;;;;16.95;73.97;95420.78;5008012;28;20136;-86
2022/06/13 02:12:08;;;;;;;8.07;5.70;;;;;;;16.93;73.54;95421.84;5008554;28;20061;-83
2022/06/13 02:14:36;;;;;;;11.40;5.97;;;;;;;16.85;73.70;95413.13;4992296;28;20022;-84
2022/06/13 02:17:32;;;;;;;11.27;5.75;;;;;;;16.81;74.17;95418.16;5008667;28;20488;-85
2022/06/13 02:20:15;;;;;;;8.00;5.53;;;;;;;16.79;74.17;95410.25;4999416;28;20069;-84
2022/06/13 02:22:45;;;;;;;8.88;5.72;;;;;;;16.81;74.32;95423.56;4991389;28;20068;-85
2022/06/13 02:25:20;;;;;;;9.60;5.60;;;;;;;16.85;73.61;95418.53;4992501;28;20026;-84
2022/06/13 02:27:56;;;;;;;8.60;5.60;;;;;;;16.85;74.29;95419.38;5009606;28;20037;-83
2022/06/13 02:30:25;;;;;;;7.63;5.68;;;;;;;16.84;74.01;95419.59;5024082;28;20089;-84
2022/06/13 02:33:03;;;;;;;9.75;5.35;;;;;;;16.88;74.05;95424.34;4975522;28;20034;-86
2022/06/13 02:35:34;;;;;;;7.10;5.47;;;;;;;16.85;74.52;95422.09;4991961;28;20426;-85
2022/06/13 02:38:12;;;;;;;11.25;5.93;;;;;;;16.84;73.98;95422.31;4992250;28;20053;-87
2022/06/13 02:40:45;;;;;;;10.60;5.30;;;;;;;16.88;74.20;95418.94;5008520;28;20153;-85
2022/06/13 02:43:18;;;;;;;7.72;5.85;;;;;;;16.89;74.16;95420.63;4994101;28;20018;-84
2022/06/13 02:46:03;;;;;;;8.25;5.47;;;;;;;16.78;74.48;95424.00;5024723;28;20037;-86
2022/06/13 02:48:38;;;;;;;6.97;5.60;;;;;;;16.74;74.51;95429.03;4992982;28;20029;-86
2022/06/13 02:51:12;;;;;;;7.20;5.88;;;;;;;16.76;74.82;95426.09;4993686;28;20108;-85
2022/06/13 02:53:58;;;;;;;6.53;5.35;;;;;;;16.84;74.34;95431.28;4995136;28;20053;-85
2022/06/13 02:59:45;;;;;;;10.60;6.07;;;;;;;16.79;74.58;95429.22;5009584;28;20069;-85
2022/06/13 03:02:11;;;;;;;7.03;5.50;;;;;;;16.82;74.39;95436.06;5008934;28;20082;-84
2022/06/13 03:04:40;;;;;;;7.68;6.13;;;;;;;16.78;74.19;95429.44;4991955;28;20461;-83
2022/06/13 03:07:34;;;;;;;12.13;6.10;;;;;;;16.80;74.29;95425.44;4991758;28;20057;-85
2022/06/13 03:10:12;;;;;;;7.22;5.93;;;;;;;16.78;74.30;95430.25;5007074;28;20033;-84
2022/06/13 03:12:59;;;;;;;8.85;6.22;;;;;;;16.84;74.12;95441.25;5009377;28;20037;-86
2022/06/13 03:15:32;;;;;;;9.07;5.90;;;;;;;16.84;74.70;95439.41;5006385;28;20034;-86
2022/06/13 03:18:09;;;;;;;7.88;6.13;;;;;;;16.82;74.63;95446.91;4991702;28;20296;-84
2022/06/13 03:20:53;;;;;;;11.45;5.93;;;;;;;16.89;74.08;95442.28;4993004;28;20064;-85
2022/06/13 03:23:26;;;;;;;6.75;5.43;;;;;;;16.91;74.15;95451.00;5023196;28;20068;-85
2022/06/13 03:25:54;;;;;;;6.05;5.10;;;;;;;16.89;74.32;95452.28;4991181;28;20034;-86
2022/06/13 03:28:25;;;;;;;8.32;5.35;;;;;;;16.92;74.14;95457.28;4973729;28;20021;-83
2022/06/13 03:31:09;;;;;;;7.22;5.82;;;;;;;16.88;73.75;95462.28;4993076;28;20042;-83
2022/06/13 03:33:40;;;;;;;9.27;6.13;;;;;;;16.91;74.00;95464.56;5008507;28;20049;-81
2022/06/13 03:36:39;;;;;;;8.50;5.88;;;;;;;16.92;73.86;95468.09;5006654;28;20519;-85
2022/06/13 03:39:22;;;;;;;7.13;6.10;;;;;;;16.89;73.92;95466.66;5004772;28;20038;-84
2022/06/13 03:42:06;;;;;;;7.38;5.78;;;;;;;16.97;74.21;95468.28;5007349;28;20034;-85
2022/06/13 03:44:43;;;;;;;7.95;6.40;;;;;;;17.00;74.24;95465.16;5006097;28;20026;-84
2022/06/13 03:47:22;;;;;;;8.32;7.15;;;;;;;17.08;73.80;95466.78;5006619;28;20505;-82
2022/06/13 03:49:54;;;;;;;8.43;5.88;;;;;;;17.13;73.65;95466.13;4990240;28;20022;-84
2022/06/13 03:52:19;;;;;;;6.85;5.75;;;;;;;17.17;73.37;95460.06;5006425;28;20025;-84
2022/06/13 03:54:52;;;;;;;8.57;6.25;;;;;;;17.18;73.45;95467.13;4989785;28;20038;-84
2022/06/13 03:57:25;;;;;;;8.15;6.03;;;;;;;17.20;73.62;95463.41;4989651;28;20439;-84
2022/06/13 04:00:00;;;;;;;13.40;6.40;;;;;;;17.23;73.41;95465.66;5007795;28;20050;-84
2022/06/13 04:02:28;;;;;;;8.98;6.53;;;;;;;17.31;73.95;95465.41;5008991;28;20041;-83
2022/06/13 04:04:54;;;;;;;9.65;6.30;;;;;;;17.35;74.00;95461.19;4975518;28;20478;-84
2022/06/13 04:07:20;;;;;;;7.45;6.28;;;;;;;17.40;73.20;95458.66;4989957;28;20014;-84
2022/06/13 04:10:07;;;;;;;11.60;6.50;;;;;;;17.32;73.34;95464.34;4990446;28;20045;-83
2022/06/13 04:12:54;;;;;;;6.95;6.10;;;;;;;17.37;73.61;95463.69;5024694;28;20129;-84
2022/06/13 04:15:28;;;;;;;9.00;6.28;;;;;;;17.48;73.32;95464.84;5005637;28;20069;-83
2022/06/13 04:18:29;;;;;;;8.20;6.60;;;;;;;17.58;72.90;95453.53;5007485;28;20096;-83
2022/06/13 04:21:07;;;;;;;6.88;5.72;;;;;;;17.68;72.77;95456.59;4987441;28;20042;-84
2022/06/13 04:23:39;;;;;;;10.43;6.38;;;;;;;17.80;72.28;95456.66;4989508;28;20053;-86
2022/06/13 04:26:05;;;;;;;9.95;6.80;;;;;;;17.75;72.92;95460.06;5005245;28;20030;-82
2022/06/13 04:28:47;;;;;;;8.50;6.43;;;;;;;17.90;72.78;95451.59;5006562;28;20521;-85
2022/06/13 04:31:13;;;;;;;9.45;6.72;;;;;;;18.06;72.50;95451.22;5005980;28;20037;-83
2022/06/13 04:33:44;;;;;;;9.10;6.32;;;;;;;18.23;72.44;95449.59;4988871;28;20063;-85
2022/06/13 04:36:11;;;;;;;8.85;6.05;;;;;;;18.34;71.88;95450.75;4989488;28;20032;-84
2022/06/13 04:38:38;;;;;;;7.80;6.47;;;;;;;18.47;71.95;95438.91;5005668;28;20033;-84
2022/06/13 04:41:04;;;;;;;8.05;6.10;;;;;;;18.56;71.67;95439.44;5021489;28;20021;-85
2022/06/13 04:43:34;;;;;;;7.63;6.05;;;;;;;18.68;71.09;95441.38;4989299;28;20184;-82
2022/06/13 04:46:04;;;;;;;12.23;7.22;;;;;;;18.74;71.32;95449.44;4988875;28;20072;-83
2022/06/13 04:48:30;;;;;;;7.82;6.55;;;;;;;18.85;71.23;95456.00;5005650;28;20074;-83
2022/06/13 04:50:57;;;;;;;7.70;6.28;;;;;;;18.97;70.93;95456.06;5021761;28;20524;-83
2022/06/13 04:53:31;;;;;;;8.43;6.07;;;;;;;19.00;70.88;95452.03;4989781;28;20042;-84
2022/06/13 04:55:59;;;;;;;9.35;6.72;;;;;;;19.01;71.35;95454.53;4990408;28;20030;-85
2022/06/13 04:58:31;;;;;;;7.88;6.10;;;;;;;19.15;71.63;95455.19;5006643;28;20076;-83
2022/06/13 05:01:21;;;;;;;10.20;6.55;;;;;;;19.17;71.37;95446.00;5021233;28;20065;-83
2022/06/13 05:03:48;;;;;;;8.15;6.80;;;;;;;19.22;71.34;95448.84;5004747;28;20038;-83
2022/06/13 05:06:38;;;;;;;9.40;6.50;;;;;;;19.19;71.09;95447.41;5021814;28;20562;-83
2022/06/13 05:09:08;;;;;;;11.30;6.65;;;;;;;18.88;72.50;95444.66;5006374;28;20445;-84
2022/06/13 05:12:07;;;;;;;8.60;6.20;;;;;;;18.98;72.29;95449.56;5005022;28;20026;-83
2022/06/13 05:14:38;;;;;;;7.70;6.65;;;;;;;18.76;73.11;95443.78;5005830;28;20127;-84
2022/06/13 05:17:29;;;;;;;7.70;6.10;;;;;;;18.81;72.60;95443.94;5005178;28;20925;-83
2022/06/13 05:20:07;;;;;;;7.30;5.88;;;;;;;18.57;73.78;95442.97;5006478;28;20038;-83
2022/06/13 05:22:59;;;;;;;7.45;5.95;;;;;;;18.54;73.47;95444.25;5006588;28;20026;-83
2022/06/13 05:25:35;;;;;;;7.47;5.40;;;;;;;18.77;73.58;95449.00;5004492;28;20037;-84
2022/06/13 05:28:00;;;;;;;9.88;5.72;;;;;;;18.62;73.45;95449.38;5005406;28;20452;-83
2022/06/13 05:30:26;;;;;;;7.57;5.60;;;;;;;18.82;72.20;95444.75;5006417;28;20186;-85
2022/06/13 05:32:52;;;;;;;6.88;5.53;;;;;;;18.80;72.33;95442.25;5020911;28;20447;-82
2022/06/13 05:35:28;;;;;;;7.80;5.72;;;;;;;18.83;72.76;95447.22;4988612;28;20030;-82
2022/06/13 05:37:54;;;;;;;6.53;5.15;;;;;;;19.03;72.08;95444.25;4989630;28;20037;-82
2022/06/13 05:40:21;;;;;;;8.20;5.55;;;;;;;19.15;71.41;95448.94;5008675;28;20494;-84
2022/06/13 05:42:46;;;;;;;8.48;4.47;;;;;;;19.34;70.48;95444.28;5008007;28;20025;-83
2022/06/13 05:45:12;;;;;;;5.78;4.63;;;;;;;19.29;69.96;95438.69;5008556;28;20030;-83
2022/06/13 05:47:38;;;;;;;10.35;5.30;;;;;;;19.44;70.40;95440.16;4992097;28;20025;-83
2022/06/13 05:50:04;;;;;;;8.30;4.97;;;;;;;19.47;70.57;95445.13;5007882;28;20507;-83
2022/06/13 05:52:30;;;;;;;7.28;5.40;;;;;;;19.44;70.13;95445.59;4991967;28;20068;-82
2022/06/13 05:54:55;;;;;;;7.80;5.68;;;;;;;19.59;70.07;95447.84;5007896;28;20034;-83
2022/06/13 05:57:20;;;;;;;8.60;4.82;;;;;;;19.58;70.46;95451.66;5008677;28;20038;-83
2022/06/13 05:59:46;;;;;;;7.85;5.80;;;;;;;19.66;71.06;95448.59;5008235;28;20042;-83
2022/06/13 06:02:11;;;;;;;7.50;6.30;;;;;;;19.70;70.82;95451.69;5009760;28;20034;-83
2022/06/13 06:04:37;;;;;;;6.40;5.60;;;;;;;19.86;70.09;95444.72;5025133;28;20022;-84
2022/06/13 06:07:03;;;;;;;6.97;5.78;;;;;;;20.10;69.21;95448.28;5008415;28;20033;-83
2022/06/13 06:09:28;;;;;;;9.23;4.90;;;;;;;20.07;67.93;95453.38;4991608;28;20026;-82
2022/06/13 06:11:53;;;;;;;5.68;4.82;;;;;;;20.11;67.35;95446.38;4991408;28;20034;-84
2022/06/13 06:14:19;;;;;;;6.90;4.80;;;;;;;20.17;66.64;95450.06;5008073;28;20030;-83
2022/06/13 06:16:44;;;;;;;6.80;4.75;;;;;;;20.34;66.50;95459.16;5008813;28;20034;-84
2022/06/13 06:19:10;;;;;;;6.00;4.50;;;;;;;20.33;67.03;95457.50;5008171;28;20018;-83
2022/06/13 06:21:35;;;;;;;5.15;4.43;;;;;;;20.51;66.33;95455.69;4990710;28;20486;-81
2022/06/13 06:24:01;;;;;;;7.28;4.32;;;;;;;20.51;66.26;95455.69;5007693;28;20524;-86
2022/06/13 06:26:27;;;;;;;6.97;4.82;;;;;;;20.63;65.76;95464.66;5008078;28;20034;-83
2022/06/13 06:28:52;;;;;;;5.97;4.68;;;;;;;20.42;66.43;95459.84;5025325;28;20508;-84
2022/06/13 06:31:18;;;;;;;7.05;4.75;;;;;;;20.68;66.10;95457.69;4992573;28;20387;-83
2022/06/13 06:33:44;;;;;;;6.20;5.13;;;;;;;20.75;65.46;95458.34;5008129;28;20049;-83
2022/06/13 06:36:12;;;;;;;6.65;4.55;;;;;;;20.75;65.53;95453.75;5024145;28;20487;-84
2022/06/13 06:38:38;;;;;;;6.22;4.60;;;;;;;20.82;66.12;95458.22;4991075;28;20096;-84
2022/06/13 06:41:03;;;;;;;6.57;4.85;;;;;;;20.73;65.82;95455.06;4992621;28;20029;-83
2022/06/13 06:43:29;;;;;;;7.50;4.53;;;;;;;20.91;65.80;95454.03;5010214;28;20038;-83
2022/06/13 06:45:54;;;;;;;12.65;6.50;;;;;;;21.23;65.71;95448.13;5015046;28;20022;-83
2022/06/13 06:48:22;;;;;;;6.63;5.10;;;;;;;21.33;64.76;95457.56;5013117;28;20034;-85
2022/06/13 06:50:49;;;;;;;7.18;5.00;;;;;;;21.38;65.40;95457.66;5014891;28;20026;-83
2022/06/13 06:53:15;;;;;;;6.68;4.32;;;;;;;21.44;63.27;95451.22;4981932;28;20094;-85
2022/06/13 07:01:08;;;;;;;5.75;4.53;;;;;;;21.53;64.99;95456.28;5011058;28;20425;-84
2022/06/13 07:03:34;;;;;;;8.73;4.50;;;;;;;21.70;64.68;95448.13;4991545;28;20567;-82
2022/06/13 07:05:59;;;;;;;7.47;5.07;;;;;;;21.56;64.80;95461.25;5006693;28;20061;-83
2022/06/13 07:08:25;;;;;;;7.63;4.97;;;;;;;21.43;64.70;95451.47;4990643;28;20025;-83
2022/06/13 07:10:50;;;;;;;7.68;4.63;;;;;;;21.55;62.95;95454.13;5023484;28;20037;-84
2022/06/13 07:13:17;;;;;;;5.35;4.32;;;;;;;21.32;65.38;95448.56;5006397;28;20519;-83
2022/06/13 07:15:43;;;;;;;5.55;4.47;;;;;;;21.25;64.84;95450.59;5023674;28;20037;-85
2022/06/13 07:18:08;;;;;;;6.45;4.18;;;;;;;21.30;64.28;95442.53;4990075;28;20037;-83
2022/06/13 07:20:34;;;;;;;5.68;3.80;;;;;;;21.43;63.22;95443.28;5006390;28;20030;-85
2022/06/13 07:23:00;;;;;;;4.65;3.80;;;;;;;21.59;63.60;95439.75;5006348;28;20406;-84
2022/06/13 07:25:26;;;;;;;7.35;4.15;;;;;;;21.69;64.74;95452.75;4990107;28;20026;-83
2022/06/13 07:27:52;;;;;;;5.38;4.10;;;;;;;21.61;63.41;95451.25;4974242;28;20354;-82
2022/06/13 07:30:19;;;;;;;5.43;4.07;;;;;;;21.69;62.79;95452.75;5006795;28;20492;-84
2022/06/13 07:32:45;;;;;;;5.38;4.15;;;;;;;21.52;64.22;95449.19;4990025;28;20456;-82
2022/06/13 07:35:12;;;;;;;10.02;4.40;;;;;;;21.80;64.11;95451.03;5005773;28;20037;-83
2022/06/13 07:40:21;;;;;;;8.32;4.00;;;;;;;22.05;61.93;95452.53;5005965;28;20271;-83
2022/06/13 07:42:49;;;;;;;7.00;4.00;;;;;;;21.55;62.74;95438.59;5023673;28;20030;-86
2022/06/13 07:45:16;;;;;;;5.82;4.00;;;;;;;21.58;62.57;95449.03;4990641;28;20021;-84
2022/06/13 07:47:42;;;;;;;5.18;3.65;;;;;;;21.71;61.65;95449.78;4989954;28;20037;-84
2022/06/13 07:50:10;;;;;;;4.95;3.70;;;;;;;21.77;61.54;95450.66;5007514;28;20026;-83
2022/06/13 07:52:35;;;;;;;6.05;4.68;;;;;;;21.70;62.59;95448.94;4989441;28;20049;-83
2022/06/13 07:55:01;;;;;;;5.60;3.72;;;;;;;22.12;60.55;95452.31;5007346;28;20029;-83
2022/06/13 07:57:26;;;;;;;6.75;3.65;;;;;;;22.28;61.88;95444.38;4989133;28;20034;-82
2022/06/13 07:59:51;;;;;;;6.03;3.60;;;;;;;22.56;60.02;95457.06;4972905;28;20054;-82
2022/06/13 08:02:17;;;;;;;5.57;3.80;;;;;;;22.79;60.74;95448.88;4988931;28;20045;-83
2022/06/13 08:04:43;;;;;;;5.22;3.47;;;;;;;22.95;57.80;95450.72;5006417;28;20014;-83
2022/06/13 08:07:13;;;;;;;4.95;3.53;;;;;;;23.04;60.08;95444.78;5007541;28;20026;-83
2022/06/13 08:09:39;;;;;;;6.55;3.67;;;;;;;22.99;58.27;95442.81;4989708;28;20040;-83
2022/06/13 08:12:06;;;;;;;4.03;3.22;;;;;;;23.17;57.06;95443.56;4990127;28;20404;-83
2022/06/13 08:14:31;;;;;;;5.32;3.80;;;;;;;23.20;56.85;95443.03;4989939;28;20057;-83
2022/06/13 08:16:57;;;;;;;6.18;3.53;;;;;;;23.19;56.41;95439.50;4989862;28;20420;-85
2022/06/13 08:19:22;;;;;;;4.88;3.65;;;;;;;23.17;56.69;95443.56;5006789;28;20026;-83
2022/06/13 08:21:47;;;;;;;5.13;3.63;;;;;;;23.15;56.76;95452.00;4989204;28;20116;-84
2022/06/13 08:24:13;;;;;;;4.15;3.30;;;;;;;23.08;57.26;95448.66;5005845;28;20029;-83
2022/06/13 08:26:38;;;;;;;3.75;3.35;;;;;;;23.06;59.74;95443.47;5006064;28;20111;-84
2022/06/13 08:29:04;;;;;;;5.57;4.10;;;;;;;23.27;55.78;95454.63;5006340;28;20025;-85
2022/06/13 08:31:30;;;;;;;5.05;3.55;;;;;;;23.30;56.48;95447.78;4990129;28;20029;-84
2022/06/13 08:33:56;;;;;;;4.38;3.05;;;;;;;23.35;56.26;95456.06;5006170;28;20034;-85
2022/06/13 08:36:22;;;;;;;3.97;3.40;;;;;;;23.35;54.77;95445.09;5005481;28;20022;-82
2022/06/13 08:38:47;;;;;;;7.95;3.05;;;;;;;23.35;52.59;95453.31;4988610;28;20042;-83
2022/06/13 08:41:15;;;;;;;5.35;2.95;;;;;;;23.37;52.18;95450.31;5006491;28;20496;-84
2022/06/13 08:43:44;;;;;;;5.43;2.85;;;;;;;23.38;52.13;95454.69;5006553;28;20135;-82
2022/06/13 08:46:24;;;;;;;4.15;2.80;;;;;;;23.27;51.91;95448.31;5005470;28;20037;-83
2022/06/13 08:48:52;;;;;;;6.10;2.88;;;;;;;23.26;54.50;95446.66;5005476;28;20520;-83
2022/06/13 08:51:28;;;;;;;4.60;2.80;;;;;;;23.33;54.40;95448.09;4989682;28;20455;-82
2022/06/13 08:53:57;;;;;;;4.80;2.83;;;;;;;23.40;54.21;95447.09;5021990;28;20084;-82
2022/06/13 08:56:27;;;;;;;3.28;2.72;;;;;;;23.38;51.86;95449.22;4989612;28;20420;-82
2022/06/13 08:59:22;;;;;;;4.25;2.90;;;;;;;23.49;53.00;95445.53;5022029;28;20040;-82
2022/06/13 09:01:50;;;;;;;4.97;2.80;;;;;;;23.40;52.46;95441.63;5005413;28;20069;-83
2022/06/13 09:04:33;;;;;;;3.97;2.95;;;;;;;23.26;52.85;95446.66;4989559;28;20124;-84
2022/06/13 09:07:17;;;;;;;6.28;2.95;;;;;;;23.38;53.78;95444.59;5004960;28;20515;-83
2022/06/13 09:09:49;;;;;;;4.20;2.92;;;;;;;23.36;53.19;95435.00;5007445;28;20022;-82
2022/06/13 09:12:18;;;;;;;5.65;3.00;;;;;;;23.26;51.97;95442.03;4989712;28;20030;-84
2022/06/13 09:15:04;;;;;;;5.00;2.67;;;;;;;23.24;50.66;95443.34;5026077;28;20022;-84
2022/06/13 09:18:02;;;;;;;4.32;2.40;;;;;;;23.27;51.17;95443.66;5009227;28;20038;-82
2022/06/13 09:20:33;;;;;;;5.68;2.60;;;;;;;23.36;51.33;95449.50;5008641;28;20029;-83
2022/06/13 09:23:14;;;;;;;5.23;2.47;;;;;;;23.38;51.56;95444.59;5011361;28;20030;-83
2022/06/13 09:26:05;;;;;;;3.00;2.30;;;;;;;23.38;51.71;95444.59;5011894;28;20692;-81
2022/06/13 09:28:49;;;;;;;2.90;2.33;;;;;;;23.22;50.56;95440.88;5009241;28;20030;-82
2022/06/13 09:31:40;;;;;;;2.90;2.60;;;;;;;23.17;51.29;95446.28;5008792;28;20036;-83
2022/06/13 09:34:18;;;;;;;3.83;2.88;;;;;;;23.33;52.26;95437.16;5007807;28;20480;-83
2022/06/13 09:37:03;;;;;;;5.88;2.67;;;;;;;23.32;52.03;95432.78;5010816;28;20041;-84
2022/06/13 09:39:29;;;;;;;3.63;2.45;;;;;;;23.43;51.46;95432.91;5010231;28;20105;-82
2022/06/13 09:42:30;;;;;;;3.75;2.60;;;;;;;23.50;50.92;95435.44;5008369;28;20029;-82
2022/06/13 09:45:29;;;;;;;3.42;2.53;;;;;;;23.62;50.59;95438.81;5008675;28;20501;-83
2022/06/13 09:48:01;;;;;;;3.63;2.42;;;;;;;23.59;51.24;95431.13;5008617;28;20037;-84
2022/06/13 09:50:30;;;;;;;3.10;2.42;;;;;;;23.80;51.80;95428.56;5008350;28;20026;-82
2022/06/13 09:53:01;;;;;;;3.80;2.63;;;;;;;23.88;49.71;95432.72;5009956;28;20064;-83
2022/06/13 09:55:51;;;;;;;6.73;3.00;;;;;;;23.84;49.74;95432.44;5009312;28;20026;-84
2022/06/13 09:58:50;;;;;;;7.55;2.70;;;;;;;23.83;50.75;95426.13;5019562;28;20042;-83
2022/06/13 10:01:37;;;;;;;4.82;2.65;;;;;;;23.87;53.38;95417.38;5000621;28;20541;-85
2022/06/13 10:04:08;;;;;;;6.85;3.50;;;;;;;24.05;50.73;95427.09;5025748;28;20030;-84
2022/06/13 10:06:50;;;;;;;6.55;3.42;;;;;;;23.92;49.84;95428.38;5008122;28;20096;-84
2022/06/13 10:09:40;;;;;;;4.10;3.40;;;;;;;23.85;50.14;95430.50;5008210;28;20038;-83
2022/06/13 10:12:31;;;;;;;4.07;3.20;;;;;;;23.84;51.30;95424.22;5008306;28;20489;-84
2022/06/13 10:15:11;;;;;;;4.57;3.28;;;;;;;23.97;50.93;95417.47;5008319;28;20026;-83
2022/06/13 10:17:55;;;;;;;5.05;3.30;;;;;;;24.01;50.99;95417.75;5024341;28;20033;-83
2022/06/13 10:20:26;;;;;;;5.55;3.28;;;;;;;24.11;51.74;95423.31;5007972;28;20080;-82
2022/06/13 10:22:59;;;;;;;4.93;3.30;;;;;;;24.02;49.26;95422.97;5009131;28;20130;-83
2022/06/13 10:25:50;;;;;;;3.95;3.28;;;;;;;24.05;51.29;95414.22;5007315;28;20133;-82
2022/06/13 10:28:37;;;;;;;3.55;3.17;;;;;;;24.16;49.82;95411.59;5009123;28;20484;-81
2022/06/13 10:31:27;;;;;;;5.13;3.20;;;;;;;24.15;50.84;95407.19;5008777;28;20030;-84
2022/06/13 10:34:05;;;;;;;4.50;3.40;;;;;;;24.15;51.49;95408.00;5008779;28;20026;-82
2022/06/13 10:36:32;;;;;;;6.82;3.17;;;;;;;24.23;51.21;95406.69;5007747;28;20555;-82
2022/06/13 10:39:11;;;;;;;5.22;3.30;;;;;;;24.24;49.81;95391.06;5007230;28;20038;-83
2022/06/13 10:41:39;;;;;;;5.55;3.22;;;;;;;24.32;49.32;95391.41;5007413;28;20586;-84
2022/06/13 10:44:06;;;;;;;4.20;3.38;;;;;;;24.26;47.75;95386.16;4991085;28;20447;-82
2022/06/13 10:46:32;;;;;;;3.67;3.20;;;;;;;24.36;50.08;95391.69;4990913;28;20028;-82
2022/06/13 10:49:19;;;;;;;5.25;3.35;;;;;;;24.46;49.22;95385.44;5007211;28;20041;-82
2022/06/13 10:51:44;;;;;;;4.63;3.60;;;;;;;24.44;49.56;95382.13;5006900;28;20045;-84
2022/06/13 10:54:12;;;;;;;4.13;3.15;;;;;;;24.36;48.32;95374.44;4990986;28;20521;-84
2022/06/13 10:56:49;;;;;;;4.18;3.20;;;;;;;24.50;50.31;95377.50;4990942;28;20133;-82
2022/06/13 10:59:30;;;;;;;6.13;3.70;;;;;;;24.49;49.97;95379.41;4992236;28;20428;-84
2022/06/13 11:02:01;;;;;;;4.77;3.27;;;;;;;24.66;49.30;95361.94;5006740;28;20444;-82
2022/06/13 11:04:33;;;;;;;5.18;3.38;;;;;;;24.64;49.85;95361.38;5023507;28;20282;-82
2022/06/13 11:07:09;;;;;;;5.18;3.55;;;;;;;24.61;48.99;95361.91;5007341;28;20072;-82
2022/06/13 11:09:46;;;;;;;6.05;3.70;;;;;;;24.52;51.48;95359.69;4989999;28;20038;-83
2022/06/13 11:12:18;;;;;;;4.78;3.65;;;;;;;24.62;49.11;95349.88;4991934;28;20437;-83
2022/06/13 11:23:51;;;;;;;4.30;3.25;;;;;;;25.05;50.36;95339.56;5006677;28;20045;-83
2022/06/13 11:29:02;;;;;;;6.15;4.20;;;;;;;25.26;49.95;95334.09;4993277;28;20602;-82
2022/06/13 11:31:27;;;;;;;7.78;3.72;;;;;;;25.36;47.80;95329.72;4990353;28;20084;-84
2022/06/13 11:33:53;;;;;;;5.70;3.78;;;;;;;25.38;47.73;95327.50;4989787;28;20037;-82
2022/06/13 11:36:26;;;;;;;6.78;3.50;;;;;;;25.40;46.84;95322.56;5005589;28;20475;-82
2022/06/13 11:38:59;;;;;;;8.35;4.30;;;;;;;25.44;48.63;95312.69;5005921;28;20037;-82
2022/06/13 11:41:44;;;;;;;4.35;3.60;;;;;;;25.48;49.03;95315.69;5022348;28;20397;-83
2022/06/13 11:44:20;;;;;;;4.38;3.80;;;;;;;25.65;49.62;95308.03;4990059;28;20108;-84
2022/06/13 11:47:04;;;;;;;7.15;3.83;;;;;;;25.76;48.93;95297.03;4989635;28;20036;-83
2022/06/13 11:49:43;;;;;;;4.35;3.63;;;;;;;25.83;48.17;95294.00;5022246;28;20022;-83
2022/06/13 11:52:08;;;;;;;5.38;3.75;;;;;;;25.94;47.57;95301.09;5023504;28;20113;-82
2022/06/13 11:54:41;;;;;;;5.53;4.00;;;;;;;25.98;47.90;95301.38;5005903;28;20119;-82
2022/06/13 11:57:12;;;;;;;5.47;3.85;;;;;;;25.89;45.41;95292.88;5005327;28;20029;-84
2022/06/13 11:59:57;;;;;;;6.00;4.10;;;;;;;25.91;44.54;95296.16;5007044;28;20050;-84
2022/06/13 12:02:41;;;;;;;6.97;4.10;;;;;;;25.97;45.76;95297.78;5005573;28;20065;-83
2022/06/13 12:05:24;;;;;;;4.25;3.83;;;;;;;26.02;45.96;95292.28;5005798;28;20030;-83
2022/06/13 12:07:58;;;;;;;6.20;4.00;;;;;;;26.12;45.79;95287.84;5005681;28;20393;-83
2022/06/13 12:10:30;;;;;;;5.57;4.00;;;;;;;26.15;44.82;95284.53;5022073;28;20056;-83
2022/06/13 12:12:55;;;;;;;5.68;3.90;;;;;;;26.16;43.80;95270.53;4989805;28;20037;-83
2022/06/13 12:15:22;;;;;;;5.03;4.00;;;;;;;26.20;43.57;95279.03;5005434;28;20041;-82
2022/06/13 12:17:54;;;;;;;5.10;3.80;;;;;;;26.25;45.37;95270.75;4972722;28;20048;-83
2022/06/13 12:20:25;;;;;;;4.97;4.13;;;;;;;26.43;45.28;95265.75;4990324;28;20037;-82
2022/06/13 12:22:50;;;;;;;8.82;4.45;;;;;;;26.63;44.07;95264.00;5005375;28;20500;-82
2022/06/13 12:25:25;;;;;;;4.97;4.20;;;;;;;26.64;42.63;95262.91;5005520;28;20523;-82
2022/06/13 12:28:09;;;;;;;4.97;4.47;;;;;;;26.66;42.60;95256.00;4972992;28;20128;-82